createdAt,value
2022-10-24T00:02:21.013Z,100765.25
2022-10-24T00:04:47.713Z,100788.97
2022-10-24T00:07:14.635Z,100803.09
2022-10-24T00:09:41.212Z,100824.16
2022-10-24T00:12:08.140Z,100819.66
2022-10-24T00:14:35.625Z,100827.63
2022-10-24T00:17:02.726Z,100815.38
2022-10-24T00:19:29.317Z,100805.56
2022-10-24T00:21:55.881Z,100807.22
2022-10-24T00:24:22.641Z,100800.44
2022-10-24T00:26:49.256Z,100793.09
2022-10-24T00:29:15.842Z,100793.09
2022-10-24T00:31:42.588Z,100787.78
2022-10-24T00:34:09.185Z,100774.50
2022-10-24T00:36:36.037Z,100782.47
2022-10-24T00:39:02.782Z,100770.22
2022-10-24T00:41:35.828Z,100773.69
2022-10-24T00:44:21.189Z,100768.56
2022-10-24T00:46:59.537Z,100749.78
2022-10-24T00:49:30.570Z,100747.31
2022-10-24T00:52:02.399Z,100759.59
2022-10-24T00:54:29.439Z,100764.06
2022-10-24T00:57:03.172Z,100769.19
2022-10-24T00:59:30.073Z,100779.19
2022-10-24T01:01:56.913Z,100790.63
2022-10-24T01:04:23.497Z,100798.59
2022-10-24T01:07:15.891Z,100807.41
2022-10-24T01:09:48.492Z,100801.25
2022-10-24T01:12:29.244Z,100797.78
2022-10-24T01:15:14.411Z,100794.28
2022-10-24T01:17:50.080Z,100799.59
2022-10-24T01:20:35.895Z,100798.81
2022-10-24T01:23:14.269Z,100788.19
2022-10-24T01:26:03.403Z,100783.84
2022-10-24T01:28:39.881Z,100777.75
2022-10-24T01:31:11.890Z,100776.72
2022-10-24T01:33:42.353Z,100769.78
2022-10-24T01:36:13.464Z,100750.34
2022-10-24T01:38:47.189Z,100739.72
2022-10-24T01:41:22.997Z,100735.25
2022-10-24T01:43:56.483Z,100729.94
2022-10-24T01:46:27.328Z,100731.56
2022-10-24T01:49:01.836Z,100719.13
2022-10-24T01:51:30.343Z,100717.44
2022-10-24T01:53:57.090Z,100717.44
2022-10-24T01:56:26.909Z,100719.13
2022-10-24T01:58:53.606Z,100708.50
2022-10-24T02:01:24.182Z,100705.00
2022-10-24T02:03:54.730Z,100700.53
2022-10-24T02:06:24.113Z,100702.97
2022-10-24T02:08:57.147Z,100698.06
2022-10-24T02:11:24.365Z,100704.81
2022-10-24T02:13:56.848Z,100703.19
2022-10-24T02:16:23.600Z,100707.47
2022-10-24T02:18:53.564Z,100712.78
2022-10-24T02:21:23.137Z,100718.91
2022-10-24T02:24:09.473Z,100716.47
2022-10-24T02:26:49.198Z,100720.75
2022-10-24T02:29:18.930Z,100720.75
2022-10-24T02:31:51.850Z,100722.38
2022-10-24T02:34:19.130Z,100723.41
2022-10-24T02:36:48.306Z,100724.44
2022-10-24T02:39:15.792Z,100728.72
2022-10-24T02:41:43.499Z,100729.53
2022-10-24T02:44:11.315Z,100726.88
2022-10-24T02:46:38.655Z,100733.84
2022-10-24T02:49:06.096Z,100719.72
2022-10-24T02:51:35.683Z,100709.28
2022-10-24T02:54:02.942Z,100705.63
2022-10-24T02:56:32.611Z,100706.44
2022-10-24T02:58:59.344Z,100709.94
2022-10-24T03:01:26.068Z,100711.78
2022-10-24T03:03:52.694Z,100709.13
2022-10-24T03:06:19.523Z,100696.00
2022-10-24T03:08:46.157Z,100700.31
2022-10-24T03:11:12.851Z,100707.28
2022-10-24T03:13:39.454Z,100698.47
2022-10-24T03:16:08.979Z,100704.63
2022-10-24T03:18:38.274Z,100706.44
2022-10-24T03:21:04.882Z,100704.81
2022-10-24T03:23:31.462Z,100702.78
2022-10-24T03:25:59.059Z,100701.97
2022-10-24T03:28:25.916Z,100698.47
2022-10-24T03:30:53.341Z,100695.84
2022-10-24T03:33:20.308Z,100702.78
2022-10-24T03:35:47.082Z,100701.13
2022-10-24T03:38:13.651Z,100703.78
2022-10-24T03:40:40.283Z,100698.47
2022-10-24T03:43:06.937Z,100687.03
2022-10-24T03:45:33.493Z,100687.84
2022-10-24T03:48:00.102Z,100687.84
2022-10-24T03:50:26.762Z,100689.69
2022-10-24T03:52:53.316Z,100697.47
2022-10-24T03:55:19.984Z,100695.00
2022-10-24T03:57:47.775Z,100693.19
2022-10-24T04:00:14.694Z,100703.78
2022-10-24T04:02:43.802Z,100713.41
2022-10-24T04:05:10.818Z,100699.50
2022-10-24T04:07:37.519Z,100705.63
2022-10-24T04:10:05.444Z,100703.97
2022-10-24T04:12:32.692Z,100704.81
2022-10-24T04:15:02.492Z,100708.28
2022-10-24T04:17:32.381Z,100711.16
2022-10-24T04:19:58.966Z,100717.09
2022-10-24T04:22:25.501Z,100709.28
2022-10-24T04:24:52.223Z,100715.44
2022-10-24T04:27:19.524Z,100713.59
2022-10-24T04:29:46.139Z,100721.56
2022-10-24T04:32:12.701Z,100715.44
2022-10-24T04:34:39.342Z,100715.44
2022-10-24T04:37:05.941Z,100708.50
2022-10-24T04:39:32.523Z,100702.16
2022-10-24T04:41:59.144Z,100711.78
2022-10-24T04:44:25.820Z,100713.81
2022-10-24T04:46:52.570Z,100724.44
2022-10-24T04:49:19.306Z,100724.22
2022-10-24T04:51:45.877Z,100720.75
2022-10-24T04:54:12.461Z,100713.81
2022-10-24T04:56:39.070Z,100718.09
2022-10-24T04:59:05.668Z,100713.81
2022-10-24T05:01:32.372Z,100726.06
2022-10-24T05:03:59.045Z,100745.47
2022-10-24T05:06:25.676Z,100747.31
2022-10-24T05:08:52.273Z,100764.88
2022-10-24T05:11:18.878Z,100770.22
2022-10-24T05:13:45.439Z,100752.44
2022-10-24T05:16:12.159Z,100745.47
2022-10-24T05:18:38.701Z,100746.28
2022-10-24T05:21:05.553Z,100738.34
2022-10-24T05:23:32.130Z,100736.50
2022-10-24T05:25:58.748Z,100734.66
2022-10-24T05:28:25.578Z,100734.66
2022-10-24T05:30:52.180Z,100745.28
2022-10-24T05:33:18.773Z,100737.31
2022-10-24T05:35:45.357Z,100725.88
2022-10-24T05:38:11.953Z,100722.38
2022-10-24T05:40:38.528Z,100720.75
2022-10-24T05:43:05.148Z,100721.56
2022-10-24T05:45:31.724Z,100727.69
2022-10-24T05:47:58.305Z,100724.03
2022-10-24T05:50:26.700Z,100724.03
2022-10-24T05:52:53.682Z,100723.22
2022-10-24T05:55:20.234Z,100718.91
2022-10-24T05:57:47.286Z,100730.38
2022-10-24T06:00:15.859Z,100718.72
2022-10-24T06:02:43.354Z,100717.09
2022-10-24T06:05:10.426Z,100726.69
2022-10-24T06:07:37.630Z,100717.09
2022-10-24T06:10:06.187Z,100711.78
2022-10-24T06:12:33.258Z,100703.78
2022-10-24T06:15:00.615Z,100701.97
2022-10-24T06:17:27.525Z,100705.63
2022-10-24T06:19:54.303Z,100707.47
2022-10-24T06:22:24.665Z,100699.31
2022-10-24T06:24:51.437Z,100708.28
2022-10-24T06:27:18.035Z,100715.44
2022-10-24T06:29:44.771Z,100712.78
2022-10-24T06:32:11.444Z,100714.59
2022-10-24T06:34:38.020Z,100729.53
2022-10-24T06:37:04.608Z,100736.69
2022-10-24T06:39:31.176Z,100734.03
2022-10-24T06:41:57.720Z,100732.19
2022-10-24T06:44:24.325Z,100718.09
2022-10-24T06:46:50.908Z,100720.75
2022-10-24T06:49:17.677Z,100726.69
2022-10-24T06:51:44.657Z,100722.38
2022-10-24T06:54:11.449Z,100725.69
2022-10-24T06:56:38.097Z,100728.34
2022-10-24T06:59:12.532Z,100724.03
2022-10-24T07:01:39.160Z,100733.44
2022-10-24T07:04:05.958Z,100721.19
2022-10-24T07:06:32.856Z,100731.81
2022-10-24T07:09:00.607Z,100730.19
2022-10-24T07:11:28.254Z,100732.66
2022-10-24T07:13:57.962Z,100724.88
2022-10-24T07:16:28.893Z,100735.31
2022-10-24T07:18:55.480Z,100740.63
2022-10-24T07:21:24.909Z,100743.28
2022-10-24T07:23:52.164Z,100740.63
2022-10-24T07:26:19.488Z,100744.06
2022-10-24T07:28:47.984Z,100751.25
2022-10-24T07:31:17.838Z,100754.69
2022-10-24T07:33:44.405Z,100751.06
2022-10-24T07:36:11.174Z,100751.88
2022-10-24T07:38:37.730Z,100754.53
2022-10-24T07:41:05.898Z,100757.34
2022-10-24T07:43:33.036Z,100752.50
2022-10-24T07:48:31.216Z,100767.63
2022-10-24T07:50:57.875Z,100767.63
2022-10-24T07:53:27.152Z,100760.47
2022-10-24T07:55:54.778Z,100775.41
2022-10-24T07:58:21.346Z,100762.13
2022-10-24T08:00:47.908Z,100757.00
2022-10-24T08:03:14.489Z,100755.78
2022-10-24T08:05:41.440Z,100753.13
2022-10-24T08:10:54.877Z,100756.63
2022-10-24T08:13:21.489Z,100760.72
2022-10-24T08:15:48.046Z,100758.88
2022-10-24T08:18:14.634Z,100755.22
2022-10-24T08:20:41.199Z,100754.22
2022-10-24T08:23:07.769Z,100757.72
2022-10-24T08:25:34.377Z,100761.16
2022-10-24T08:28:03.925Z,100764.84
2022-10-24T08:30:33.430Z,100765.69
2022-10-24T08:33:00.039Z,100768.13
2022-10-24T08:35:26.630Z,100761.34
2022-10-24T08:37:53.166Z,100760.16
2022-10-24T08:40:20.227Z,100764.66
2022-10-24T08:42:48.174Z,100768.94
2022-10-24T08:45:39.262Z,100762.81
2022-10-24T08:48:09.014Z,100763.63
2022-10-24T08:50:36.610Z,100760.78
2022-10-24T08:53:23.191Z,100767.13
2022-10-24T08:55:55.012Z,100766.28
2022-10-24T08:58:36.657Z,100762.63
2022-10-24T09:01:07.969Z,100766.28
2022-10-24T09:04:01.860Z,100767.13
2022-10-24T09:06:30.537Z,100756.69
2022-10-24T09:09:03.819Z,100757.50
2022-10-24T09:11:36.985Z,100760.97
2022-10-24T09:14:13.212Z,100763.63
2022-10-24T09:16:42.008Z,100760.16
2022-10-24T09:19:13.140Z,100757.31
2022-10-24T09:21:41.519Z,100758.94
2022-10-24T09:24:20.543Z,100760.78
2022-10-24T09:26:47.394Z,100762.63
2022-10-24T09:29:13.935Z,100759.78
2022-10-24T09:31:40.667Z,100764.91
2022-10-24T09:34:07.446Z,100756.94
2022-10-24T09:36:34.248Z,100754.28
2022-10-24T09:39:25.060Z,100753.25
2022-10-24T09:41:51.886Z,100758.56
2022-10-24T09:44:38.716Z,100755.91
2022-10-24T09:47:09.238Z,100757.78
2022-10-24T09:49:37.748Z,100756.75
2022-10-24T09:52:16.715Z,100754.91
2022-10-24T09:54:44.051Z,100752.25
2022-10-24T09:57:10.609Z,100761.66
2022-10-24T09:59:49.286Z,100756.34
2022-10-24T10:02:34.756Z,100758.19
2022-10-24T10:05:04.581Z,100754.34
2022-10-24T10:07:34.089Z,100757.81
2022-10-24T10:10:05.731Z,100748.19
2022-10-24T10:12:34.637Z,100742.06
2022-10-24T10:15:03.632Z,100739.41
2022-10-24T10:17:33.576Z,100744.53
2022-10-24T10:20:00.182Z,100739.22
2022-10-24T10:22:31.978Z,100742.69
2022-10-24T10:25:00.278Z,100752.50
2022-10-24T10:27:33.852Z,100749.84
2022-10-24T10:30:15.346Z,100745.34
2022-10-24T10:32:53.944Z,100751.50
2022-10-24T10:35:43.641Z,100745.34
2022-10-24T10:38:34.515Z,100756.81
2022-10-24T10:41:25.169Z,100750.66
2022-10-24T10:44:10.475Z,100754.94
2022-10-24T10:47:06.898Z,100754.16
2022-10-24T10:49:41.597Z,100747.81
2022-10-24T10:52:19.460Z,100751.09
2022-10-24T10:54:49.062Z,100750.09
2022-10-24T10:57:22.074Z,100756.41
2022-10-24T10:59:57.605Z,100750.28
2022-10-24T11:02:38.860Z,100753.75
2022-10-24T11:05:33.838Z,100745.78
2022-10-24T11:08:09.520Z,100747.63
2022-10-24T11:10:41.912Z,100744.13
2022-10-24T11:13:16.081Z,100749.44
2022-10-24T11:15:45.741Z,100746.78
2022-10-24T11:18:23.284Z,100752.28
2022-10-24T11:20:54.170Z,100751.31
2022-10-24T11:23:37.670Z,100753.13
2022-10-24T11:26:17.001Z,100746.19
2022-10-24T11:28:56.309Z,100746.00
2022-10-24T11:31:38.309Z,100744.31
2022-10-24T11:34:35.859Z,100740.88
2022-10-24T11:37:22.515Z,100750.47
2022-10-24T11:39:58.364Z,100746.78
2022-10-24T11:42:31.476Z,100733.69
2022-10-24T11:45:06.986Z,100740.47
2022-10-24T11:47:54.615Z,100736.16
2022-10-24T11:50:38.358Z,100738.81
2022-10-24T11:53:25.474Z,100737.19
2022-10-24T11:56:27.161Z,100733.31
2022-10-24T11:59:20.031Z,100730.66
2022-10-24T12:01:55.573Z,100721.06
2022-10-24T12:04:53.048Z,100734.34
2022-10-24T12:07:50.784Z,100722.88
2022-10-24T12:10:40.928Z,100722.88
2022-10-24T12:13:26.136Z,100716.75
2022-10-24T12:15:58.379Z,100709.59
2022-10-24T12:18:27.921Z,100703.66
2022-10-24T12:20:55.949Z,100703.47
2022-10-24T12:23:24.811Z,100699.97
2022-10-24T12:26:08.105Z,100699.97
2022-10-24T12:28:35.277Z,100693.03
2022-10-24T12:31:31.701Z,100694.66
2022-10-24T12:34:19.477Z,100684.88
2022-10-24T12:37:12.130Z,100682.22
2022-10-24T12:39:47.190Z,100682.22
2022-10-24T12:42:16.383Z,100690.38
2022-10-24T12:44:43.904Z,100682.22
2022-10-24T12:47:36.732Z,100688.50
2022-10-24T12:50:21.738Z,100690.38
2022-10-24T12:52:48.523Z,100688.31
2022-10-24T12:55:33.446Z,100688.31
2022-10-24T12:58:03.488Z,100683.00
2022-10-24T13:00:31.473Z,100681.38
2022-10-24T13:03:04.047Z,100683.84
2022-10-24T13:06:09.251Z,100690.78
2022-10-24T13:09:00.626Z,100694.91
2022-10-24T13:12:04.480Z,100687.94
2022-10-24T13:14:40.222Z,100685.09
2022-10-24T13:17:18.127Z,100685.91
2022-10-24T13:19:44.922Z,100680.59
2022-10-24T13:22:29.583Z,100682.88
2022-10-24T13:24:56.885Z,100685.34
2022-10-24T13:27:31.710Z,100693.31
2022-10-24T13:29:59.527Z,100695.97
2022-10-24T13:32:35.909Z,100685.34
2022-10-24T13:35:04.039Z,100690.47
2022-10-24T13:37:43.600Z,100693.75
2022-10-24T13:40:18.244Z,100688.47
2022-10-24T13:42:55.092Z,100685.63
2022-10-24T13:45:29.314Z,100692.22
2022-10-24T13:48:01.021Z,100684.63
2022-10-24T13:50:32.580Z,100677.03
2022-10-24T13:53:12.211Z,100674.56
2022-10-24T13:55:47.795Z,100681.09
2022-10-24T13:58:26.500Z,100689.06
2022-10-24T14:01:06.067Z,100682.91
2022-10-24T14:03:34.006Z,100681.47
2022-10-24T14:06:03.636Z,100686.78
2022-10-24T14:08:33.857Z,100687.81
2022-10-24T14:11:02.540Z,100685.16
2022-10-24T14:13:31.187Z,100680.88
2022-10-24T14:16:03.461Z,100681.06
2022-10-24T14:18:30.586Z,100673.88
2022-10-24T14:21:03.034Z,100680.22
2022-10-24T14:23:31.528Z,100677.56
2022-10-24T14:26:19.578Z,100671.22
2022-10-24T14:28:58.591Z,100668.56
2022-10-24T14:31:31.030Z,100673.69
2022-10-24T14:33:58.431Z,100682.50
2022-10-24T14:36:30.034Z,100674.53
2022-10-24T14:38:58.816Z,100672.28
2022-10-24T14:41:35.573Z,100682.91
2022-10-24T14:44:02.423Z,100678.44
2022-10-24T14:46:42.092Z,100681.09
2022-10-24T14:49:26.900Z,100682.72
2022-10-24T14:52:01.963Z,100688.06
2022-10-24T14:54:32.490Z,100680.06
2022-10-24T14:57:00.779Z,100688.66
2022-10-24T14:59:47.115Z,100693.59
2022-10-24T15:02:32.648Z,100685.00
2022-10-24T15:05:20.763Z,100683.34
2022-10-24T15:08:22.122Z,100687.66
2022-10-24T15:10:48.141Z,100672.94
2022-10-24T15:13:24.860Z,100677.22
2022-10-24T15:15:55.067Z,100680.06
2022-10-24T15:18:24.401Z,100681.09
2022-10-24T15:20:54.064Z,100684.75
2022-10-24T15:23:25.653Z,100690.06
2022-10-24T15:26:02.194Z,100693.94
2022-10-24T15:28:49.347Z,100706.22
2022-10-24T15:31:19.011Z,100703.56
2022-10-24T15:33:46.307Z,100704.56
2022-10-24T15:36:22.899Z,100710.09
2022-10-24T15:39:01.291Z,100709.06
2022-10-24T15:41:28.412Z,100715.19
2022-10-24T15:43:55.902Z,100710.91
2022-10-24T15:46:22.694Z,100710.09
2022-10-24T15:48:49.786Z,100717.25
2022-10-24T15:51:19.050Z,100724.38
2022-10-24T15:53:46.242Z,100720.72
2022-10-24T15:56:12.937Z,100724.19
2022-10-24T15:58:40.653Z,100733.19
2022-10-24T16:01:08.295Z,100725.41
2022-10-24T16:03:35.489Z,100728.72
2022-10-24T16:06:04.425Z,100736.88
2022-10-24T16:08:31.697Z,100740.31
2022-10-24T16:10:58.291Z,100738.69
2022-10-24T16:13:24.862Z,100740.31
2022-10-24T16:15:51.601Z,100745.66
2022-10-24T16:18:18.213Z,100740.50
2022-10-24T16:20:44.788Z,100742.19
2022-10-24T16:23:15.147Z,100750.16
2022-10-24T16:25:42.009Z,100750.97
2022-10-24T16:28:08.625Z,100754.44
2022-10-24T16:30:37.335Z,100753.44
2022-10-24T16:33:03.932Z,100766.72
2022-10-24T16:35:33.204Z,100765.09
2022-10-24T16:38:01.020Z,100759.78
2022-10-24T16:40:28.944Z,100764.25
2022-10-24T16:42:57.672Z,100762.25
2022-10-24T16:45:24.529Z,100751.59
2022-10-24T16:47:51.812Z,100758.75
2022-10-24T16:50:25.097Z,100757.94
2022-10-24T16:53:03.576Z,100764.91
2022-10-24T16:55:31.451Z,100765.69
2022-10-24T16:57:58.516Z,100757.94
2022-10-24T17:00:25.609Z,100768.56
2022-10-24T17:02:53.798Z,100764.91
2022-10-24T17:05:23.698Z,100763.03
2022-10-24T17:07:50.442Z,100767.75
2022-10-24T17:10:20.615Z,100772.03
2022-10-24T17:12:50.757Z,100764.06
2022-10-24T17:15:21.889Z,100766.91
2022-10-24T17:17:49.451Z,100766.91
2022-10-24T17:20:17.414Z,100756.28
2022-10-24T17:22:45.810Z,100758.75
2022-10-24T17:25:22.632Z,100753.63
2022-10-24T17:27:50.075Z,100750.78
2022-10-24T17:30:25.770Z,100752.63
2022-10-24T17:32:52.769Z,100747.31
2022-10-24T17:35:21.670Z,100750.97
2022-10-24T17:37:51.163Z,100749.97
2022-10-24T17:40:21.397Z,100746.47
2022-10-24T17:42:48.760Z,100747.31
2022-10-24T17:45:21.238Z,100750.78
2022-10-24T17:47:48.263Z,100757.94
2022-10-24T17:50:15.759Z,100750.16
2022-10-24T17:52:43.679Z,100750.97
2022-10-24T17:55:44.578Z,100751.97
2022-10-24T17:58:09.708Z,100755.28
2022-10-24T18:00:36.541Z,100741.16
2022-10-24T18:03:03.156Z,100753.44
2022-10-24T18:05:29.964Z,100757.09
2022-10-24T18:07:57.917Z,100763.25
2022-10-24T18:10:24.748Z,100754.44
2022-10-24T18:12:51.425Z,100766.53
2022-10-24T18:15:21.385Z,100771.00
2022-10-24T18:17:48.814Z,100779.00
2022-10-24T18:20:15.997Z,100769.19
2022-10-24T18:22:44.169Z,100770.22
2022-10-24T18:25:13.333Z,100783.31
2022-10-24T18:27:41.143Z,100786.78
2022-10-24T18:30:08.735Z,100788.63
2022-10-24T18:32:35.596Z,100786.78
2022-10-24T18:35:02.205Z,100785.13
2022-10-24T18:37:28.880Z,100793.13
2022-10-24T18:39:55.742Z,100793.13
2022-10-24T18:42:31.424Z,100796.59
2022-10-24T18:44:58.326Z,100801.94
2022-10-24T18:47:25.888Z,100802.09
2022-10-24T18:49:53.004Z,100802.09
2022-10-24T18:52:34.804Z,100792.28
2022-10-24T18:55:08.968Z,100801.09
2022-10-24T18:57:36.622Z,100795.78
2022-10-24T19:00:05.781Z,100795.78
2022-10-24T19:05:25.346Z,100793.94
2022-10-24T19:07:52.411Z,100793.94
2022-10-24T19:10:27.811Z,100793.31
2022-10-24T19:12:54.660Z,100796.59
2022-10-24T19:15:21.818Z,100794.94
2022-10-24T19:17:48.790Z,100798.44
2022-10-24T19:20:18.303Z,100798.44
2022-10-24T19:22:45.837Z,100803.75
2022-10-24T19:25:14.027Z,100792.28
2022-10-24T19:27:40.853Z,100789.63
2022-10-24T19:30:08.234Z,100786.16
2022-10-24T19:32:34.849Z,100780.84
2022-10-24T19:35:01.554Z,100786.16
2022-10-24T19:37:28.238Z,100788.81
2022-10-24T19:39:54.912Z,100792.28
2022-10-24T19:42:21.627Z,100795.78
2022-10-24T19:44:50.088Z,100799.06
2022-10-24T19:47:17.028Z,100796.59
2022-10-24T19:49:43.655Z,100795.78
2022-10-24T19:52:10.220Z,100797.41
2022-10-24T19:54:36.835Z,100793.72
2022-10-24T19:57:03.567Z,100797.41
2022-10-24T19:59:33.817Z,100794.56
2022-10-24T20:02:00.920Z,100794.38
2022-10-24T20:04:27.618Z,100796.38
2022-10-24T20:06:54.267Z,100796.38
2022-10-24T20:09:20.901Z,100798.06
2022-10-24T20:11:47.746Z,100798.06
2022-10-24T20:14:14.413Z,100808.69
2022-10-24T20:16:41.153Z,100810.34
2022-10-24T20:19:07.718Z,100809.50
2022-10-24T20:21:36.365Z,100813.19
2022-10-24T20:24:03.317Z,100812.34
2022-10-24T20:26:29.969Z,100810.69
2022-10-24T20:28:56.627Z,100815.84
2022-10-24T20:31:26.324Z,100818.50
2022-10-24T20:33:53.364Z,100814.00
2022-10-24T20:36:21.255Z,100821.16
2022-10-24T20:38:47.876Z,100816.84
2022-10-24T20:41:14.536Z,100817.88
2022-10-24T20:43:41.161Z,100822.16
2022-10-24T20:46:07.773Z,100821.34
2022-10-24T20:48:35.330Z,100825.63
2022-10-24T20:51:10.889Z,100823.19
2022-10-24T20:53:38.137Z,100821.53
2022-10-24T20:56:10.163Z,100831.78
2022-10-24T20:58:38.939Z,100837.28
2022-10-24T21:01:20.983Z,100839.13
2022-10-24T21:03:48.526Z,100837.28
2022-10-24T21:06:26.431Z,100836.47
2022-10-24T21:08:55.341Z,100847.13
2022-10-24T21:11:27.763Z,100841.78
2022-10-24T21:13:59.848Z,100848.75
2022-10-24T21:16:26.908Z,100847.91
2022-10-24T21:18:53.672Z,100855.91
2022-10-24T21:21:21.388Z,100855.09
2022-10-24T21:23:56.327Z,100844.47
2022-10-24T21:26:23.264Z,100849.78
2022-10-24T21:28:59.294Z,100845.44
2022-10-24T21:31:35.698Z,100852.22
2022-10-24T21:34:02.418Z,100843.63
2022-10-24T21:36:29.047Z,100850.56
2022-10-24T21:38:59.874Z,100853.22
2022-10-24T21:41:27.861Z,100852.03
2022-10-24T21:43:55.030Z,100858.56
2022-10-24T21:46:23.370Z,100860.19
2022-10-24T21:48:50.806Z,100864.53
2022-10-24T21:51:22.683Z,100860.19
2022-10-24T21:53:51.765Z,100865.31
2022-10-24T21:56:20.559Z,100872.50
2022-10-24T21:58:55.543Z,100865.50
2022-10-24T22:01:26.596Z,100874.50
2022-10-24T22:03:57.646Z,100861.41
2022-10-24T22:06:24.696Z,100863.25
2022-10-24T22:08:51.974Z,100869.19
2022-10-24T22:11:28.851Z,100872.88
2022-10-24T22:13:55.650Z,100875.34
2022-10-24T22:16:24.474Z,100880.84
2022-10-24T22:18:51.977Z,100879.00
2022-10-24T22:21:27.271Z,100886.16
2022-10-24T22:24:02.834Z,100887.00
2022-10-24T22:26:29.899Z,100889.81
2022-10-24T22:28:56.800Z,100891.47
2022-10-24T22:31:25.084Z,100889.66
2022-10-24T22:33:52.284Z,100890.63
2022-10-24T22:37:03.441Z,100900.47
2022-10-24T22:39:30.377Z,100897.81
2022-10-24T22:41:57.290Z,100897.81
2022-10-24T22:44:24.531Z,100897.81
2022-10-24T22:47:23.785Z,100896.16
2022-10-24T22:50:21.434Z,100896.16
2022-10-24T22:52:51.164Z,100897.81
2022-10-24T22:55:25.878Z,100900.47
2022-10-24T22:57:52.793Z,100900.47
2022-10-24T23:00:20.125Z,100898.81
2022-10-24T23:02:47.203Z,100905.78
2022-10-24T23:05:33.737Z,100895.94
2022-10-24T23:08:10.038Z,100904.75
2022-10-24T23:10:39.581Z,100914.56
2022-10-24T23:13:06.611Z,100904.75
2022-10-24T23:15:33.373Z,100904.75
2022-10-24T23:18:00.235Z,100908.44
2022-10-24T23:20:40.402Z,100911.72
2022-10-24T23:23:24.329Z,100910.91
2022-10-24T23:26:02.360Z,100910.06
2022-10-24T23:28:41.034Z,100911.72
2022-10-24T23:31:07.949Z,100915.41
2022-10-24T23:33:34.832Z,100914.38
2022-10-24T23:36:01.627Z,100918.69
2022-10-24T23:38:28.574Z,100918.88
2022-10-24T23:40:55.562Z,100923.38
2022-10-24T23:43:23.256Z,100921.53
2022-10-24T23:46:00.508Z,100926.03
2022-10-24T23:48:55.070Z,100920.72
2022-10-24T23:51:30.998Z,100923.38
2022-10-24T23:53:57.914Z,100930.50
2022-10-24T23:56:28.660Z,100924.38
2022-10-24T23:58:55.844Z,100921.72
